sensor_id;sensor_type;location;lat;lon;timestamp;P1;durP1;ratioP1;P2;durP2;ratioP2
22557;SDS011;11445;53.816;8.902;2022-07-11T00:02:19;2.45;;;0.80;;
22557;SDS011;11445;53.816;8.902;2022-07-11T00:04:46;3.47;;;0.90;;
22557;SDS011;11445;53.816;8.902;2022-07-11T00:07:14;3.05;;;0.90;;
22557;SDS011;11445;53.816;8.902;2022-07-11T00:09:42;1.77;;;0.70;;
22557;SDS011;11445;53.816;8.902;2022-07-11T00:12:09;2.60;;;0.70;;
22557;SDS011;11445;53.816;8.902;2022-07-11T00:14:38;3.60;;;0.57;;
22557;SDS011;11445;53.816;8.902;2022-07-11T00:17:05;1.27;;;0.40;;
22557;SDS011;11445;53.816;8.902;2022-07-11T00:19:35;6.72;;;0.70;;
22557;SDS011;11445;53.816;8.902;2022-07-11T00:22:03;2.75;;;0.70;;
22557;SDS011;11445;53.816;8.902;2022-07-11T00:24:31;1.70;;;0.65;;
22557;SDS011;11445;53.816;8.902;2022-07-11T00:26:58;1.98;;;0.68;;
22557;SDS011;11445;53.816;8.902;2022-07-11T00:29:25;9.35;;;0.75;;
22557;SDS011;11445;53.816;8.902;2022-07-11T00:31:54;1.55;;;0.68;;
22557;SDS011;11445;53.816;8.902;2022-07-11T00:34:21;1.50;;;0.65;;
22557;SDS011;11445;53.816;8.902;2022-07-11T00:36:49;3.65;;;0.52;;
22557;SDS011;11445;53.816;8.902;2022-07-11T00:39:17;0.70;;;0.50;;
22557;SDS011;11445;53.816;8.902;2022-07-11T00:41:44;7.43;;;0.65;;
22557;SDS011;11445;53.816;8.902;2022-07-11T00:44:11;1.52;;;0.65;;
22557;SDS011;11445;53.816;8.902;2022-07-11T00:46:39;4.82;;;0.60;;
22557;SDS011;11445;53.816;8.902;2022-07-11T00:49:06;1.23;;;0.60;;
22557;SDS011;11445;53.816;8.902;2022-07-11T00:51:33;4.03;;;0.65;;
22557;SDS011;11445;53.816;8.902;2022-07-11T00:54:02;2.15;;;0.77;;
22557;SDS011;11445;53.816;8.902;2022-07-11T00:56:32;4.20;;;0.88;;
22557;SDS011;11445;53.816;8.902;2022-07-11T00:58:59;2.67;;;0.55;;
22557;SDS011;11445;53.816;8.902;2022-07-11T01:01:28;5.50;;;0.60;;
22557;SDS011;11445;53.816;8.902;2022-07-11T01:03:55;3.83;;;0.80;;
22557;SDS011;11445;53.816;8.902;2022-07-11T01:06:22;4.10;;;0.80;;
22557;SDS011;11445;53.816;8.902;2022-07-11T01:08:49;3.45;;;0.60;;
22557;SDS011;11445;53.816;8.902;2022-07-11T01:11:18;4.00;;;0.63;;
22557;SDS011;11445;53.816;8.902;2022-07-11T01:13:45;2.47;;;0.60;;
22557;SDS011;11445;53.816;8.902;2022-07-11T01:16:13;2.35;;;0.70;;
22557;SDS011;11445;53.816;8.902;2022-07-11T01:18:41;2.97;;;0.70;;
22557;SDS011;11445;53.816;8.902;2022-07-11T01:21:11;4.03;;;0.50;;
22557;SDS011;11445;53.816;8.902;2022-07-11T01:23:47;1.92;;;0.60;;
22557;SDS011;11445;53.816;8.902;2022-07-11T01:26:14;2.35;;;0.63;;
22557;SDS011;11445;53.816;8.902;2022-07-11T01:28:42;3.30;;;0.60;;
22557;SDS011;11445;53.816;8.902;2022-07-11T01:31:10;3.55;;;0.55;;
22557;SDS011;11445;53.816;8.902;2022-07-11T01:33:37;0.98;;;0.63;;
22557;SDS011;11445;53.816;8.902;2022-07-11T01:36:04;3.95;;;0.60;;
22557;SDS011;11445;53.816;8.902;2022-07-11T01:38:32;2.25;;;0.70;;
22557;SDS011;11445;53.816;8.902;2022-07-11T01:41:01;0.85;;;0.57;;
22557;SDS011;11445;53.816;8.902;2022-07-11T01:43:28;3.25;;;0.73;;
22557;SDS011;11445;53.816;8.902;2022-07-11T01:45:55;2.25;;;0.60;;
22557;SDS011;11445;53.816;8.902;2022-07-11T01:48:23;0.65;;;0.50;;
22557;SDS011;11445;53.816;8.902;2022-07-11T01:50:50;4.07;;;0.57;;
22557;SDS011;11445;53.816;8.902;2022-07-11T01:53:17;2.45;;;0.63;;
22557;SDS011;11445;53.816;8.902;2022-07-11T01:55:44;2.05;;;0.60;;
22557;SDS011;11445;53.816;8.902;2022-07-11T01:58:13;3.97;;;0.70;;
22557;SDS011;11445;53.816;8.902;2022-07-11T02:00:40;3.22;;;0.50;;
22557;SDS011;11445;53.816;8.902;2022-07-11T02:03:07;2.65;;;0.57;;
22557;SDS011;11445;53.816;8.902;2022-07-11T02:05:34;1.60;;;0.40;;
22557;SDS011;11445;53.816;8.902;2022-07-11T02:08:04;1.83;;;0.63;;
22557;SDS011;11445;53.816;8.902;2022-07-11T02:10:38;2.10;;;0.50;;
22557;SDS011;11445;53.816;8.902;2022-07-11T02:13:07;2.83;;;0.50;;
22557;SDS011;11445;53.816;8.902;2022-07-11T02:15:36;5.25;;;0.65;;
22557;SDS011;11445;53.816;8.902;2022-07-11T02:18:04;4.68;;;0.60;;
22557;SDS011;11445;53.816;8.902;2022-07-11T02:20:31;1.20;;;0.40;;
22557;SDS011;11445;53.816;8.902;2022-07-11T02:22:59;3.92;;;0.40;;
22557;SDS011;11445;53.816;8.902;2022-07-11T02:25:27;2.10;;;0.47;;
22557;SDS011;11445;53.816;8.902;2022-07-11T02:27:54;1.38;;;0.43;;
22557;SDS011;11445;53.816;8.902;2022-07-11T02:30:21;4.50;;;0.50;;
22557;SDS011;11445;53.816;8.902;2022-07-11T02:32:50;1.65;;;0.40;;
22557;SDS011;11445;53.816;8.902;2022-07-11T02:35:17;1.75;;;0.35;;
22557;SDS011;11445;53.816;8.902;2022-07-11T02:37:44;2.17;;;0.60;;
22557;SDS011;11445;53.816;8.902;2022-07-11T02:40:12;0.57;;;0.50;;
22557;SDS011;11445;53.816;8.902;2022-07-11T02:42:39;3.72;;;0.50;;
22557;SDS011;11445;53.816;8.902;2022-07-11T02:45:06;1.25;;;0.40;;
22557;SDS011;11445;53.816;8.902;2022-07-11T02:47:34;0.73;;;0.30;;
22557;SDS011;11445;53.816;8.902;2022-07-11T02:50:06;1.35;;;0.50;;
22557;SDS011;11445;53.816;8.902;2022-07-11T02:52:34;4.22;;;0.57;;
22557;SDS011;11445;53.816;8.902;2022-07-11T02:55:01;1.40;;;0.50;;
22557;SDS011;11445;53.816;8.902;2022-07-11T02:57:28;3.63;;;0.50;;
22557;SDS011;11445;53.816;8.902;2022-07-11T02:59:56;1.05;;;0.47;;
22557;SDS011;11445;53.816;8.902;2022-07-11T03:02:23;0.73;;;0.40;;
22557;SDS011;11445;53.816;8.902;2022-07-11T03:04:50;3.85;;;0.60;;
22557;SDS011;11445;53.816;8.902;2022-07-11T03:07:18;2.42;;;0.55;;
22557;SDS011;11445;53.816;8.902;2022-07-11T03:09:45;3.00;;;0.40;;
22557;SDS011;11445;53.816;8.902;2022-07-11T03:12:12;1.85;;;0.50;;
22557;SDS011;11445;53.816;8.902;2022-07-11T03:14:39;3.70;;;0.50;;
22557;SDS011;11445;53.816;8.902;2022-07-11T03:17:07;2.50;;;0.40;;
22557;SDS011;11445;53.816;8.902;2022-07-11T03:19:35;1.85;;;0.40;;
22557;SDS011;11445;53.816;8.902;2022-07-11T03:22:02;1.60;;;0.50;;
22557;SDS011;11445;53.816;8.902;2022-07-11T03:24:31;3.13;;;0.55;;
22557;SDS011;11445;53.816;8.902;2022-07-11T03:26:58;2.97;;;0.30;;
22557;SDS011;11445;53.816;8.902;2022-07-11T03:29:25;1.95;;;0.68;;
22557;SDS011;11445;53.816;8.902;2022-07-11T03:31:52;4.75;;;0.45;;
22557;SDS011;11445;53.816;8.902;2022-07-11T03:34:19;2.60;;;0.52;;
22557;SDS011;11445;53.816;8.902;2022-07-11T03:36:46;1.35;;;0.50;;
22557;SDS011;11445;53.816;8.902;2022-07-11T03:39:14;0.60;;;0.40;;
22557;SDS011;11445;53.816;8.902;2022-07-11T03:41:42;3.13;;;0.50;;
22557;SDS011;11445;53.816;8.902;2022-07-11T03:44:09;1.38;;;0.50;;
22557;SDS011;11445;53.816;8.902;2022-07-11T03:46:36;2.17;;;0.50;;
22557;SDS011;11445;53.816;8.902;2022-07-11T03:49:04;0.68;;;0.50;;
22557;SDS011;11445;53.816;8.902;2022-07-11T03:51:31;6.00;;;0.70;;
22557;SDS011;11445;53.816;8.902;2022-07-11T03:53:58;2.63;;;0.77;;
22557;SDS011;11445;53.816;8.902;2022-07-11T03:56:25;0.57;;;0.40;;
22557;SDS011;11445;53.816;8.902;2022-07-11T03:58:53;0.88;;;0.60;;
22557;SDS011;11445;53.816;8.902;2022-07-11T04:01:21;1.48;;;0.60;;
22557;SDS011;11445;53.816;8.902;2022-07-11T04:03:48;2.55;;;0.95;;
22557;SDS011;11445;53.816;8.902;2022-07-11T04:06:15;1.17;;;0.50;;
22557;SDS011;11445;53.816;8.902;2022-07-11T04:08:42;1.75;;;0.40;;
22557;SDS011;11445;53.816;8.902;2022-07-11T04:11:09;1.98;;;0.77;;
22557;SDS011;11445;53.816;8.902;2022-07-11T04:13:36;2.72;;;0.40;;
22557;SDS011;11445;53.816;8.902;2022-07-11T04:16:05;1.70;;;0.40;;
22557;SDS011;11445;53.816;8.902;2022-07-11T04:18:32;3.28;;;0.60;;
22557;SDS011;11445;53.816;8.902;2022-07-11T04:20:59;1.23;;;0.50;;
22557;SDS011;11445;53.816;8.902;2022-07-11T04:23:26;2.22;;;0.50;;
22557;SDS011;11445;53.816;8.902;2022-07-11T04:25:53;1.75;;;0.55;;
22557;SDS011;11445;53.816;8.902;2022-07-11T04:28:21;1.67;;;0.60;;
22557;SDS011;11445;53.816;8.902;2022-07-11T04:30:48;1.60;;;0.47;;
22557;SDS011;11445;53.816;8.902;2022-07-11T04:33:16;4.07;;;0.60;;
22557;SDS011;11445;53.816;8.902;2022-07-11T04:35:43;3.42;;;0.63;;
22557;SDS011;11445;53.816;8.902;2022-07-11T04:38:10;3.45;;;0.77;;
22557;SDS011;11445;53.816;8.902;2022-07-11T04:40:37;4.43;;;0.80;;
22557;SDS011;11445;53.816;8.902;2022-07-11T04:43:04;2.90;;;0.60;;
22557;SDS011;11445;53.816;8.902;2022-07-11T04:45:31;0.63;;;0.50;;
22557;SDS011;11445;53.816;8.902;2022-07-11T04:47:58;3.13;;;0.68;;
22557;SDS011;11445;53.816;8.902;2022-07-11T04:50:28;0.88;;;0.60;;
22557;SDS011;11445;53.816;8.902;2022-07-11T04:52:55;1.20;;;0.50;;
22557;SDS011;11445;53.816;8.902;2022-07-11T04:55:22;2.78;;;0.70;;
22557;SDS011;11445;53.816;8.902;2022-07-11T04:57:49;2.55;;;0.70;;
22557;SDS011;11445;53.816;8.902;2022-07-11T05:00:17;4.22;;;0.50;;
22557;SDS011;11445;53.816;8.902;2022-07-11T05:02:45;1.77;;;0.70;;
22557;SDS011;11445;53.816;8.902;2022-07-11T05:05:12;4.60;;;0.50;;
22557;SDS011;11445;53.816;8.902;2022-07-11T05:07:40;1.25;;;0.45;;
22557;SDS011;11445;53.816;8.902;2022-07-11T05:10:08;0.60;;;0.47;;
22557;SDS011;11445;53.816;8.902;2022-07-11T05:12:35;2.58;;;0.60;;
22557;SDS011;11445;53.816;8.902;2022-07-11T05:15:02;2.00;;;0.75;;
22557;SDS011;11445;53.816;8.902;2022-07-11T05:17:30;4.35;;;0.80;;
22557;SDS011;11445;53.816;8.902;2022-07-11T05:19:57;2.53;;;0.90;;
22557;SDS011;11445;53.816;8.902;2022-07-11T05:22:24;1.80;;;0.75;;
22557;SDS011;11445;53.816;8.902;2022-07-11T05:24:53;2.45;;;0.70;;
22557;SDS011;11445;53.816;8.902;2022-07-11T05:27:20;0.77;;;0.63;;
22557;SDS011;11445;53.816;8.902;2022-07-11T05:29:47;2.65;;;0.75;;
22557;SDS011;11445;53.816;8.902;2022-07-11T05:32:14;0.65;;;0.63;;
22557;SDS011;11445;53.816;8.902;2022-07-11T05:34:41;2.05;;;0.90;;
22557;SDS011;11445;53.816;8.902;2022-07-11T05:37:08;3.35;;;0.95;;
22557;SDS011;11445;53.816;8.902;2022-07-11T05:39:36;10.48;;;1.33;;
22557;SDS011;11445;53.816;8.902;2022-07-11T05:42:05;1.80;;;1.10;;
22557;SDS011;11445;53.816;8.902;2022-07-11T05:44:32;0.80;;;0.80;;
22557;SDS011;11445;53.816;8.902;2022-07-11T05:47:00;1.50;;;1.30;;
22557;SDS011;11445;53.816;8.902;2022-07-11T05:49:27;1.73;;;1.02;;
22557;SDS011;11445;53.816;8.902;2022-07-11T05:51:56;1.77;;;1.17;;
22557;SDS011;11445;53.816;8.902;2022-07-11T05:54:23;1.75;;;1.10;;
22557;SDS011;11445;53.816;8.902;2022-07-11T05:56:50;1.25;;;0.93;;
22557;SDS011;11445;53.816;8.902;2022-07-11T05:59:19;3.63;;;1.10;;
22557;SDS011;11445;53.816;8.902;2022-07-11T06:01:46;2.88;;;1.27;;
22557;SDS011;11445;53.816;8.902;2022-07-11T06:04:13;1.10;;;1.00;;
22557;SDS011;11445;53.816;8.902;2022-07-11T06:06:40;1.65;;;1.02;;
22557;SDS011;11445;53.816;8.902;2022-07-11T06:09:07;1.77;;;1.20;;
22557;SDS011;11445;53.816;8.902;2022-07-11T06:11:33;4.20;;;1.00;;
22557;SDS011;11445;53.816;8.902;2022-07-11T06:14:01;3.47;;;1.10;;
22557;SDS011;11445;53.816;8.902;2022-07-11T06:16:29;1.77;;;1.30;;
22557;SDS011;11445;53.816;8.902;2022-07-11T06:18:56;2.55;;;1.42;;
22557;SDS011;11445;53.816;8.902;2022-07-11T06:21:23;1.25;;;1.10;;
22557;SDS011;11445;53.816;8.902;2022-07-11T06:23:51;3.47;;;1.10;;
22557;SDS011;11445;53.816;8.902;2022-07-11T06:26:18;1.27;;;1.17;;
22557;SDS011;11445;53.816;8.902;2022-07-11T06:28:45;1.52;;;1.30;;
22557;SDS011;11445;53.816;8.902;2022-07-11T06:31:12;3.00;;;1.20;;
22557;SDS011;11445;53.816;8.902;2022-07-11T06:33:42;1.65;;;1.20;;
22557;SDS011;11445;53.816;8.902;2022-07-11T06:36:09;3.53;;;1.17;;
22557;SDS011;11445;53.816;8.902;2022-07-11T06:38:37;2.33;;;1.20;;
22557;SDS011;11445;53.816;8.902;2022-07-11T06:41:04;1.50;;;1.33;;
22557;SDS011;11445;53.816;8.902;2022-07-11T06:43:31;1.98;;;1.13;;
22557;SDS011;11445;53.816;8.902;2022-07-11T06:45:58;1.00;;;0.95;;
22557;SDS011;11445;53.816;8.902;2022-07-11T06:48:26;1.38;;;1.27;;
22557;SDS011;11445;53.816;8.902;2022-07-11T06:50:54;1.65;;;1.13;;
22557;SDS011;11445;53.816;8.902;2022-07-11T06:53:21;4.38;;;1.02;;
22557;SDS011;11445;53.816;8.902;2022-07-11T06:55:48;3.50;;;1.02;;
22557;SDS011;11445;53.816;8.902;2022-07-11T06:58:15;3.63;;;1.45;;
22557;SDS011;11445;53.816;8.902;2022-07-11T07:01:10;2.03;;;1.10;;
22557;SDS011;11445;53.816;8.902;2022-07-11T07:03:37;3.83;;;0.98;;
22557;SDS011;11445;53.816;8.902;2022-07-11T07:06:04;3.65;;;1.00;;
22557;SDS011;11445;53.816;8.902;2022-07-11T07:08:31;1.75;;;0.93;;
22557;SDS011;11445;53.816;8.902;2022-07-11T07:10:58;3.03;;;1.27;;
22557;SDS011;11445;53.816;8.902;2022-07-11T07:13:26;1.30;;;1.20;;
22557;SDS011;11445;53.816;8.902;2022-07-11T07:15:54;1.30;;;1.20;;
22557;SDS011;11445;53.816;8.902;2022-07-11T07:18:23;1.75;;;1.13;;
22557;SDS011;11445;53.816;8.902;2022-07-11T07:20:51;2.42;;;0.98;;
22557;SDS011;11445;53.816;8.902;2022-07-11T07:23:18;2.20;;;1.20;;
22557;SDS011;11445;53.816;8.902;2022-07-11T07:25:46;2.20;;;1.00;;
22557;SDS011;11445;53.816;8.902;2022-07-11T07:28:13;1.23;;;0.88;;
22557;SDS011;11445;53.816;8.902;2022-07-11T07:30:40;1.92;;;1.20;;
22557;SDS011;11445;53.816;8.902;2022-07-11T07:33:07;0.93;;;0.90;;
22557;SDS011;11445;53.816;8.902;2022-07-11T07:35:38;4.18;;;0.93;;
22557;SDS011;11445;53.816;8.902;2022-07-11T07:38:05;1.05;;;0.57;;
22557;SDS011;11445;53.816;8.902;2022-07-11T07:40:32;1.88;;;0.75;;
22557;SDS011;11445;53.816;8.902;2022-07-11T07:42:59;3.25;;;1.00;;
22557;SDS011;11445;53.816;8.902;2022-07-11T07:45:27;1.65;;;0.90;;
22557;SDS011;11445;53.816;8.902;2022-07-11T07:47:54;2.70;;;1.10;;
22557;SDS011;11445;53.816;8.902;2022-07-11T07:50:21;3.58;;;1.10;;
22557;SDS011;11445;53.816;8.902;2022-07-11T07:52:49;1.40;;;1.10;;
22557;SDS011;11445;53.816;8.902;2022-07-11T07:55:17;1.80;;;1.20;;
22557;SDS011;11445;53.816;8.902;2022-07-11T07:57:44;2.05;;;1.00;;
22557;SDS011;11445;53.816;8.902;2022-07-11T08:00:11;4.30;;;1.92;;
22557;SDS011;11445;53.816;8.902;2022-07-11T08:02:56;1.00;;;0.90;;
22557;SDS011;11445;53.816;8.902;2022-07-11T08:05:30;1.95;;;0.90;;
22557;SDS011;11445;53.816;8.902;2022-07-11T08:07:59;2.55;;;1.00;;
22557;SDS011;11445;53.816;8.902;2022-07-11T08:10:26;3.75;;;1.10;;
22557;SDS011;11445;53.816;8.902;2022-07-11T08:12:53;2.60;;;0.90;;
22557;SDS011;11445;53.816;8.902;2022-07-11T08:15:21;2.30;;;1.00;;
22557;SDS011;11445;53.816;8.902;2022-07-11T08:17:48;0.77;;;0.77;;
22557;SDS011;11445;53.816;8.902;2022-07-11T08:20:15;2.83;;;1.10;;
22557;SDS011;11445;53.816;8.902;2022-07-11T08:22:42;0.90;;;0.80;;
22557;SDS011;11445;53.816;8.902;2022-07-11T08:25:11;1.00;;;0.82;;
22557;SDS011;11445;53.816;8.902;2022-07-11T08:27:38;1.77;;;0.90;;
22557;SDS011;11445;53.816;8.902;2022-07-11T08:30:06;0.90;;;0.90;;
22557;SDS011;11445;53.816;8.902;2022-07-11T08:32:37;2.83;;;0.90;;
22557;SDS011;11445;53.816;8.902;2022-07-11T08:35:05;1.30;;;0.70;;
22557;SDS011;11445;53.816;8.902;2022-07-11T08:37:33;0.80;;;0.68;;
22557;SDS011;11445;53.816;8.902;2022-07-11T08:40:01;0.82;;;0.82;;
22557;SDS011;11445;53.816;8.902;2022-07-11T08:42:31;2.65;;;1.15;;
22557;SDS011;11445;53.816;8.902;2022-07-11T08:45:03;0.80;;;0.80;;
22557;SDS011;11445;53.816;8.902;2022-07-11T08:47:31;1.23;;;1.13;;
22557;SDS011;11445;53.816;8.902;2022-07-11T08:49:59;1.13;;;0.95;;
22557;SDS011;11445;53.816;8.902;2022-07-11T08:52:28;1.80;;;0.73;;
22557;SDS011;11445;53.816;8.902;2022-07-11T08:54:55;0.80;;;0.55;;
22557;SDS011;11445;53.816;8.902;2022-07-11T08:57:22;2.05;;;0.70;;
22557;SDS011;11445;53.816;8.902;2022-07-11T08:59:52;0.50;;;0.50;;
22557;SDS011;11445;53.816;8.902;2022-07-11T09:02:21;1.38;;;0.60;;
22557;SDS011;11445;53.816;8.902;2022-07-11T09:04:49;1.63;;;0.70;;
22557;SDS011;11445;53.816;8.902;2022-07-11T09:07:16;1.33;;;0.50;;
22557;SDS011;11445;53.816;8.902;2022-07-11T09:09:43;0.70;;;0.60;;
22557;SDS011;11445;53.816;8.902;2022-07-11T09:12:10;1.08;;;0.50;;
22557;SDS011;11445;53.816;8.902;2022-07-11T09:14:38;0.60;;;0.40;;
22557;SDS011;11445;53.816;8.902;2022-07-11T09:17:07;1.00;;;0.52;;
22557;SDS011;11445;53.816;8.902;2022-07-11T09:19:35;0.60;;;0.40;;
22557;SDS011;11445;53.816;8.902;2022-07-11T09:22:04;0.68;;;0.50;;
22557;SDS011;11445;53.816;8.902;2022-07-11T09:24:54;1.65;;;0.60;;
22557;SDS011;11445;53.816;8.902;2022-07-11T09:27:40;1.17;;;0.90;;
22557;SDS011;11445;53.816;8.902;2022-07-11T09:30:15;0.77;;;0.50;;
22557;SDS011;11445;53.816;8.902;2022-07-11T09:32:52;0.88;;;0.55;;
22557;SDS011;11445;53.816;8.902;2022-07-11T09:35:21;1.25;;;0.60;;
22557;SDS011;11445;53.816;8.902;2022-07-11T09:37:48;0.30;;;0.30;;
22557;SDS011;11445;53.816;8.902;2022-07-11T09:40:15;0.60;;;0.40;;
22557;SDS011;11445;53.816;8.902;2022-07-11T09:42:47;0.40;;;0.40;;
22557;SDS011;11445;53.816;8.902;2022-07-11T09:45:15;0.20;;;0.20;;
22557;SDS011;11445;53.816;8.902;2022-07-11T09:47:43;0.40;;;0.40;;
22557;SDS011;11445;53.816;8.902;2022-07-11T09:50:13;0.98;;;0.50;;
22557;SDS011;11445;53.816;8.902;2022-07-11T09:52:44;0.30;;;0.30;;
22557;SDS011;11445;53.816;8.902;2022-07-11T09:55:25;3.15;;;0.50;;
22557;SDS011;11445;53.816;8.902;2022-07-11T09:57:52;0.95;;;0.60;;
22557;SDS011;11445;53.816;8.902;2022-07-11T10:00:19;0.43;;;0.40;;
22557;SDS011;11445;53.816;8.902;2022-07-11T10:02:46;2.17;;;0.60;;
22557;SDS011;11445;53.816;8.902;2022-07-11T10:05:15;1.33;;;0.40;;
22557;SDS011;11445;53.816;8.902;2022-07-11T10:07:43;1.15;;;0.47;;
22557;SDS011;11445;53.816;8.902;2022-07-11T10:10:10;0.63;;;0.40;;
22557;SDS011;11445;53.816;8.902;2022-07-11T10:12:37;0.73;;;0.40;;
22557;SDS011;11445;53.816;8.902;2022-07-11T10:15:05;0.52;;;0.50;;
22557;SDS011;11445;53.816;8.902;2022-07-11T10:17:37;0.45;;;0.40;;
22557;SDS011;11445;53.816;8.902;2022-07-11T10:20:12;0.40;;;0.40;;
22557;SDS011;11445;53.816;8.902;2022-07-11T10:22:50;0.55;;;0.40;;
22557;SDS011;11445;53.816;8.902;2022-07-11T10:25:24;0.50;;;0.50;;
22557;SDS011;11445;53.816;8.902;2022-07-11T10:28:07;1.08;;;0.40;;
22557;SDS011;11445;53.816;8.902;2022-07-11T10:30:40;0.50;;;0.50;;
22557;SDS011;11445;53.816;8.902;2022-07-11T10:33:11;1.27;;;0.38;;
22557;SDS011;11445;53.816;8.902;2022-07-11T10:35:41;1.05;;;0.52;;
22557;SDS011;11445;53.816;8.902;2022-07-11T10:38:10;1.88;;;0.43;;
22557;SDS011;11445;53.816;8.902;2022-07-11T10:40:40;1.35;;;0.45;;
22557;SDS011;11445;53.816;8.902;2022-07-11T10:43:10;1.65;;;0.35;;
22557;SDS011;11445;53.816;8.902;2022-07-11T10:45:54;0.50;;;0.40;;
22557;SDS011;11445;53.816;8.902;2022-07-11T10:48:22;0.50;;;0.38;;
22557;SDS011;11445;53.816;8.902;2022-07-11T10:51:04;1.15;;;0.55;;
22557;SDS011;11445;53.816;8.902;2022-07-11T10:53:39;2.17;;;0.50;;
22557;SDS011;11445;53.816;8.902;2022-07-11T10:56:12;0.40;;;0.20;;
22557;SDS011;11445;53.816;8.902;2022-07-11T10:59:03;0.35;;;0.32;;
22557;SDS011;11445;53.816;8.902;2022-07-11T11:04:46;0.30;;;0.30;;
22557;SDS011;11445;53.816;8.902;2022-07-11T11:07:32;0.57;;;0.40;;
22557;SDS011;11445;53.816;8.902;2022-07-11T11:10:07;0.88;;;0.50;;
22557;SDS011;11445;53.816;8.902;2022-07-11T11:13:15;0.52;;;0.35;;
22557;SDS011;11445;53.816;8.902;2022-07-11T11:15:45;0.75;;;0.55;;
22557;SDS011;11445;53.816;8.902;2022-07-11T11:18:32;0.80;;;0.40;;
22557;SDS011;11445;53.816;8.902;2022-07-11T11:21:20;0.47;;;0.45;;
22557;SDS011;11445;53.816;8.902;2022-07-11T11:26:47;3.80;;;0.65;;
22557;SDS011;11445;53.816;8.902;2022-07-11T11:29:22;0.35;;;0.30;;
22557;SDS011;11445;53.816;8.902;2022-07-11T11:31:54;2.67;;;0.35;;
22557;SDS011;11445;53.816;8.902;2022-07-11T11:34:22;0.50;;;0.40;;
22557;SDS011;11445;53.816;8.902;2022-07-11T11:36:54;4.18;;;0.47;;
22557;SDS011;11445;53.816;8.902;2022-07-11T11:39:28;0.37;;;0.30;;
22557;SDS011;11445;53.816;8.902;2022-07-11T11:42:03;2.17;;;0.32;;
22557;SDS011;11445;53.816;8.902;2022-07-11T11:44:35;1.15;;;0.40;;
22557;SDS011;11445;53.816;8.902;2022-07-11T11:47:20;0.30;;;0.30;;
22557;SDS011;11445;53.816;8.902;2022-07-11T11:49:48;0.63;;;0.50;;
22557;SDS011;11445;53.816;8.902;2022-07-11T11:52:15;0.68;;;0.40;;
22557;SDS011;11445;53.816;8.902;2022-07-11T11:54:51;1.65;;;0.47;;
22557;SDS011;11445;53.816;8.902;2022-07-11T11:57:21;5.00;;;0.80;;
22557;SDS011;11445;53.816;8.902;2022-07-11T11:59:49;0.70;;;0.47;;
22557;SDS011;11445;53.816;8.902;2022-07-11T12:02:29;0.77;;;0.40;;
22557;SDS011;11445;53.816;8.902;2022-07-11T12:04:57;0.57;;;0.50;;
22557;SDS011;11445;53.816;8.902;2022-07-11T12:07:25;1.02;;;0.68;;
22557;SDS011;11445;53.816;8.902;2022-07-11T12:09:55;0.80;;;0.50;;
22557;SDS011;11445;53.816;8.902;2022-07-11T12:12:25;0.60;;;0.60;;
22557;SDS011;11445;53.816;8.902;2022-07-11T12:18:19;1.88;;;0.40;;
22557;SDS011;11445;53.816;8.902;2022-07-11T12:20:48;0.82;;;0.43;;
22557;SDS011;11445;53.816;8.902;2022-07-11T12:23:16;1.00;;;0.30;;
22557;SDS011;11445;53.816;8.902;2022-07-11T12:25:45;0.55;;;0.30;;
22557;SDS011;11445;53.816;8.902;2022-07-11T12:28:14;2.28;;;0.50;;
22557;SDS011;11445;53.816;8.902;2022-07-11T12:30:41;1.67;;;0.50;;
22557;SDS011;11445;53.816;8.902;2022-07-11T12:33:09;1.48;;;0.50;;
22557;SDS011;11445;53.816;8.902;2022-07-11T12:35:51;0.30;;;0.30;;
22557;SDS011;11445;53.816;8.902;2022-07-11T12:38:20;3.28;;;0.40;;
22557;SDS011;11445;53.816;8.902;2022-07-11T12:40:59;0.20;;;0.20;;
22557;SDS011;11445;53.816;8.902;2022-07-11T12:43:43;2.47;;;0.35;;
22557;SDS011;11445;53.816;8.902;2022-07-11T12:46:30;2.17;;;0.50;;
22557;SDS011;11445;53.816;8.902;2022-07-11T12:49:00;2.30;;;0.40;;
22557;SDS011;11445;53.816;8.902;2022-07-11T12:51:28;5.20;;;0.50;;
22557;SDS011;11445;53.816;8.902;2022-07-11T12:54:01;1.98;;;0.40;;
22557;SDS011;11445;53.816;8.902;2022-07-11T12:56:30;1.67;;;0.50;;
22557;SDS011;11445;53.816;8.902;2022-07-11T12:58:58;1.67;;;0.40;;
22557;SDS011;11445;53.816;8.902;2022-07-11T13:01:26;0.55;;;0.55;;
22557;SDS011;11445;53.816;8.902;2022-07-11T13:03:54;1.45;;;0.40;;
22557;SDS011;11445;53.816;8.902;2022-07-11T13:06:21;0.43;;;0.40;;
22557;SDS011;11445;53.816;8.902;2022-07-11T13:09:02;0.40;;;0.40;;
22557;SDS011;11445;53.816;8.902;2022-07-11T13:11:31;0.98;;;0.40;;
22557;SDS011;11445;53.816;8.902;2022-07-11T13:13:58;2.00;;;0.50;;
22557;SDS011;11445;53.816;8.902;2022-07-11T13:16:25;2.15;;;0.50;;
22557;SDS011;11445;53.816;8.902;2022-07-11T13:18:53;1.40;;;0.40;;
22557;SDS011;11445;53.816;8.902;2022-07-11T13:21:20;2.38;;;0.70;;
22557;SDS011;11445;53.816;8.902;2022-07-11T13:23:47;2.03;;;0.77;;
22557;SDS011;11445;53.816;8.902;2022-07-11T13:26:14;0.95;;;0.70;;
22557;SDS011;11445;53.816;8.902;2022-07-11T13:28:43;1.73;;;0.82;;
22557;SDS011;11445;53.816;8.902;2022-07-11T13:31:10;1.15;;;0.65;;
22557;SDS011;11445;53.816;8.902;2022-07-11T13:33:37;0.80;;;0.80;;
22557;SDS011;11445;53.816;8.902;2022-07-11T13:36:06;0.70;;;0.70;;
22557;SDS011;11445;53.816;8.902;2022-07-11T13:38:33;0.70;;;0.70;;
22557;SDS011;11445;53.816;8.902;2022-07-11T13:41:00;1.88;;;0.70;;
22557;SDS011;11445;53.816;8.902;2022-07-11T13:43:27;1.55;;;0.70;;
22557;SDS011;11445;53.816;8.902;2022-07-11T13:45:57;1.30;;;0.80;;
22557;SDS011;11445;53.816;8.902;2022-07-11T13:48:24;1.15;;;0.80;;
22557;SDS011;11445;53.816;8.902;2022-07-11T13:50:51;1.60;;;0.60;;
22557;SDS011;11445;53.816;8.902;2022-07-11T13:53:18;1.15;;;0.55;;
22557;SDS011;11445;53.816;8.902;2022-07-11T13:55:45;0.85;;;0.60;;
22557;SDS011;11445;53.816;8.902;2022-07-11T13:58:12;1.55;;;0.85;;
22557;SDS011;11445;53.816;8.902;2022-07-11T14:00:52;1.15;;;0.65;;
22557;SDS011;11445;53.816;8.902;2022-07-11T14:03:20;0.70;;;0.60;;
22557;SDS011;11445;53.816;8.902;2022-07-11T14:05:48;0.85;;;0.60;;
22557;SDS011;11445;53.816;8.902;2022-07-11T14:08:15;0.70;;;0.70;;
22557;SDS011;11445;53.816;8.902;2022-07-11T14:10:42;0.75;;;0.68;;
22557;SDS011;11445;53.816;8.902;2022-07-11T14:13:10;0.68;;;0.68;;
22557;SDS011;11445;53.816;8.902;2022-07-11T14:15:37;1.85;;;0.60;;
22557;SDS011;11445;53.816;8.902;2022-07-11T14:18:06;0.57;;;0.55;;
22557;SDS011;11445;53.816;8.902;2022-07-11T14:20:34;2.33;;;0.50;;
22557;SDS011;11445;53.816;8.902;2022-07-11T14:23:01;1.42;;;0.60;;
22557;SDS011;11445;53.816;8.902;2022-07-11T14:25:29;1.70;;;0.63;;
22557;SDS011;11445;53.816;8.902;2022-07-11T14:27:56;2.03;;;1.00;;
22557;SDS011;11445;53.816;8.902;2022-07-11T14:30:23;0.60;;;0.60;;
22557;SDS011;11445;53.816;8.902;2022-07-11T14:32:50;2.95;;;0.63;;
22557;SDS011;11445;53.816;8.902;2022-07-11T14:35:17;1.80;;;0.90;;
22557;SDS011;11445;53.816;8.902;2022-07-11T14:37:46;3.00;;;1.02;;
22557;SDS011;11445;53.816;8.902;2022-07-11T14:40:13;2.30;;;0.90;;
22557;SDS011;11445;53.816;8.902;2022-07-11T14:42:40;3.13;;;1.20;;
22557;SDS011;11445;53.816;8.902;2022-07-11T14:45:07;1.58;;;0.90;;
22557;SDS011;11445;53.816;8.902;2022-07-11T14:47:35;2.83;;;1.00;;
22557;SDS011;11445;53.816;8.902;2022-07-11T14:50:03;1.10;;;1.00;;
22557;SDS011;11445;53.816;8.902;2022-07-11T14:52:31;2.50;;;0.70;;
22557;SDS011;11445;53.816;8.902;2022-07-11T14:55:00;1.13;;;0.80;;
22557;SDS011;11445;53.816;8.902;2022-07-11T14:57:27;2.53;;;0.88;;
22557;SDS011;11445;53.816;8.902;2022-07-11T14:59:55;2.55;;;0.90;;
22557;SDS011;11445;53.816;8.902;2022-07-11T15:02:22;3.80;;;1.00;;
22557;SDS011;11445;53.816;8.902;2022-07-11T15:05:03;2.25;;;0.80;;
22557;SDS011;11445;53.816;8.902;2022-07-11T15:07:30;2.13;;;0.90;;
22557;SDS011;11445;53.816;8.902;2022-07-11T15:10:16;3.50;;;1.20;;